createdAt,value
2024-03-12T00:02:32.904Z,14.56
2024-03-12T00:05:09.627Z,14.54
2024-03-12T00:07:40.137Z,14.53
2024-03-12T00:10:16.286Z,14.51
2024-03-12T00:12:49.956Z,14.51
2024-03-12T00:15:22.767Z,14.50
2024-03-12T00:17:55.647Z,14.49
2024-03-12T00:20:31.469Z,14.48
2024-03-12T00:23:03.050Z,14.46
2024-03-12T00:25:33.575Z,14.44
2024-03-12T00:28:07.054Z,14.41
2024-03-12T00:30:42.180Z,14.40
2024-03-12T00:33:13.074Z,14.39
2024-03-12T00:35:47.197Z,14.38
2024-03-12T00:38:19.308Z,14.37
2024-03-12T00:40:51.713Z,14.37
2024-03-12T00:43:22.182Z,14.37
2024-03-12T00:45:54.350Z,14.37
2024-03-12T00:48:26.532Z,14.38
2024-03-12T00:50:57.076Z,14.39
2024-03-12T00:53:27.711Z,14.38
2024-03-12T00:55:59.461Z,14.37
2024-03-12T00:58:29.989Z,14.37
2024-03-12T01:01:00.582Z,14.36
2024-03-12T01:03:31.564Z,14.36
2024-03-12T01:06:02.859Z,14.35
2024-03-12T01:08:34.992Z,14.35
2024-03-12T01:11:06.830Z,14.35
2024-03-12T01:13:35.876Z,14.35
2024-03-12T01:16:07.653Z,14.33
2024-03-12T01:18:37.090Z,14.33
2024-03-12T01:21:09.571Z,14.31
2024-03-12T01:23:41.218Z,14.30
2024-03-12T01:26:11.705Z,14.29
2024-03-12T01:28:42.196Z,14.29
2024-03-12T01:31:12.775Z,14.29
2024-03-12T01:33:43.542Z,14.31
2024-03-12T01:36:21.930Z,14.35
2024-03-12T01:38:55.850Z,14.36
2024-03-12T01:41:27.784Z,14.37
2024-03-12T01:44:00.707Z,14.38
2024-03-12T01:46:35.362Z,14.37
2024-03-12T01:49:06.974Z,14.38
2024-03-12T01:51:38.343Z,14.38
2024-03-12T01:54:10.126Z,14.37
2024-03-12T01:56:41.100Z,14.35
2024-03-12T01:59:13.225Z,14.32
2024-03-12T02:01:43.759Z,14.29
2024-03-12T02:04:16.081Z,14.25
2024-03-12T02:06:47.651Z,14.22
2024-03-12T02:09:20.568Z,14.18
2024-03-12T02:11:52.351Z,14.15
2024-03-12T02:14:22.821Z,14.13
2024-03-12T02:16:53.285Z,14.12
2024-03-12T02:19:24.485Z,14.10
2024-03-12T02:21:54.965Z,14.10
2024-03-12T02:24:25.458Z,14.08
2024-03-12T02:26:55.933Z,14.06
2024-03-12T02:29:26.480Z,14.03
2024-03-12T02:31:57.761Z,13.99
2024-03-12T02:34:30.377Z,13.96
2024-03-12T02:37:03.386Z,13.94
2024-03-12T02:39:34.118Z,13.93
2024-03-12T02:42:04.827Z,13.90
2024-03-12T02:44:35.350Z,13.86
2024-03-12T02:47:05.995Z,13.82
2024-03-12T02:49:36.870Z,13.79
2024-03-12T02:52:07.521Z,13.76
2024-03-12T02:54:38.048Z,13.72
2024-03-12T02:57:10.245Z,13.70
2024-03-12T02:59:40.800Z,13.67
2024-03-12T03:02:13.938Z,13.65
2024-03-12T03:04:44.409Z,13.63
2024-03-12T03:07:18.335Z,13.62
2024-03-12T03:09:48.978Z,13.60
2024-03-12T03:12:19.506Z,13.58
2024-03-12T03:14:50.047Z,13.56
2024-03-12T03:17:21.792Z,13.53
2024-03-12T03:19:52.299Z,13.52
2024-03-12T03:22:22.744Z,13.52
2024-03-12T03:24:53.215Z,13.51
2024-03-12T03:27:23.805Z,13.52
2024-03-12T03:29:58.005Z,13.54
2024-03-12T03:32:29.481Z,13.57
2024-03-12T03:35:00.122Z,13.59
2024-03-12T03:37:34.193Z,13.61
2024-03-12T03:40:11.005Z,13.63
2024-03-12T03:42:43.143Z,13.63
2024-03-12T03:45:12.359Z,13.61
2024-03-12T03:47:42.857Z,13.59
2024-03-12T03:50:13.996Z,13.58
2024-03-12T03:52:45.052Z,13.55
2024-03-12T03:55:15.602Z,13.51
2024-03-12T03:57:46.518Z,13.48
2024-03-12T04:00:18.208Z,13.46
2024-03-12T04:02:49.353Z,13.44
2024-03-12T04:05:20.754Z,13.42
2024-03-12T04:07:51.974Z,13.39
2024-03-12T04:10:23.572Z,13.38
2024-03-12T04:12:57.222Z,13.37
2024-03-12T04:15:30.337Z,13.36
2024-03-12T04:18:01.580Z,13.37
2024-03-12T04:20:32.119Z,13.39
2024-03-12T04:23:03.215Z,13.39
2024-03-12T04:25:33.714Z,13.38
2024-03-12T04:28:04.291Z,13.38
2024-03-12T04:30:35.883Z,13.35
2024-03-12T04:33:07.299Z,13.33
2024-03-12T04:35:37.800Z,13.32
2024-03-12T04:38:09.338Z,13.31
2024-03-12T04:40:39.916Z,13.29
2024-03-12T04:43:10.436Z,13.26
2024-03-12T04:45:42.140Z,13.22
2024-03-12T04:48:12.955Z,13.17
2024-03-12T04:50:43.463Z,13.11
2024-03-12T04:53:13.909Z,13.09
2024-03-12T04:55:44.407Z,13.10
2024-03-12T04:58:14.917Z,13.09
2024-03-12T05:00:45.508Z,13.08
2024-03-12T05:03:15.998Z,13.05
2024-03-12T05:05:46.506Z,13.00
2024-03-12T05:08:17.073Z,12.95
2024-03-12T05:10:47.623Z,12.91
2024-03-12T05:13:18.642Z,12.88
2024-03-12T05:15:49.250Z,12.84
2024-03-12T05:18:19.774Z,12.83
2024-03-12T05:20:52.321Z,12.84
2024-03-12T05:23:24.518Z,12.85
2024-03-12T05:25:54.861Z,12.85
2024-03-12T05:28:25.636Z,12.84
2024-03-12T05:30:57.872Z,12.83
2024-03-12T05:33:31.117Z,12.81
2024-03-12T05:36:10.703Z,12.79
2024-03-12T05:38:56.558Z,12.77
2024-03-12T05:41:29.667Z,12.73
2024-03-12T05:44:17.534Z,12.70
2024-03-12T05:47:05.962Z,12.68
2024-03-12T05:49:36.804Z,12.67
2024-03-12T05:52:07.521Z,12.64
2024-03-12T05:54:38.121Z,12.61
2024-03-12T05:57:08.716Z,12.57
2024-03-12T05:59:39.208Z,12.54
2024-03-12T06:02:09.982Z,12.50
2024-03-12T06:04:40.688Z,12.46
2024-03-12T06:07:13.697Z,12.45
2024-03-12T06:09:44.500Z,12.42
2024-03-12T06:12:15.059Z,12.42
2024-03-12T06:14:45.508Z,12.42
2024-03-12T06:17:16.074Z,12.45
2024-03-12T06:19:46.543Z,12.45
2024-03-12T06:22:18.307Z,12.45
2024-03-12T06:24:49.418Z,12.45
2024-03-12T06:27:20.421Z,12.43
2024-03-12T06:29:53.204Z,12.42
2024-03-12T06:32:26.259Z,12.42
2024-03-12T06:34:57.824Z,12.41
2024-03-12T06:37:29.066Z,12.42
2024-03-12T06:40:00.151Z,12.42
2024-03-12T06:42:31.510Z,12.43
2024-03-12T06:45:03.618Z,12.44
2024-03-12T06:47:38.266Z,12.45
2024-03-12T06:50:11.399Z,12.45
2024-03-12T06:52:48.147Z,12.43
2024-03-12T06:55:22.644Z,12.41
2024-03-12T06:57:56.380Z,12.40
2024-03-12T07:00:33.621Z,12.40
2024-03-12T07:03:05.080Z,12.39
2024-03-12T07:05:37.740Z,12.38
2024-03-12T07:08:10.744Z,12.39
2024-03-12T07:10:42.162Z,12.38
2024-03-12T07:13:13.963Z,12.38
2024-03-12T07:15:46.459Z,12.37
2024-03-12T07:18:17.133Z,12.38
2024-03-12T07:20:47.608Z,12.36
2024-03-12T07:23:19.134Z,12.35
2024-03-12T07:25:49.657Z,12.34
2024-03-12T07:28:24.325Z,12.34
2024-03-12T07:30:56.397Z,12.36
2024-03-12T07:33:26.950Z,12.38
2024-03-12T07:35:57.430Z,12.41
2024-03-12T07:38:28.893Z,12.43
2024-03-12T07:40:59.435Z,12.44
2024-03-12T07:43:31.364Z,12.46
2024-03-12T07:46:00.421Z,12.46
2024-03-12T07:48:31.000Z,12.46
2024-03-12T07:51:03.254Z,12.44
2024-03-12T07:53:34.693Z,12.43
2024-03-12T07:56:06.342Z,12.42
2024-03-12T07:58:36.869Z,12.39
2024-03-12T08:01:07.603Z,12.37
2024-03-12T08:03:43.287Z,12.37
2024-03-12T08:06:13.858Z,12.38
2024-03-12T08:08:44.363Z,12.38
2024-03-12T08:11:15.163Z,12.38
2024-03-12T08:13:46.383Z,12.39
2024-03-12T08:16:17.517Z,12.37
2024-03-12T08:18:48.113Z,12.36
2024-03-12T08:21:18.747Z,12.34
2024-03-12T08:23:49.256Z,12.32
2024-03-12T08:26:19.740Z,12.30
2024-03-12T08:28:52.398Z,12.26
2024-03-12T08:31:30.901Z,12.23
2024-03-12T08:34:06.325Z,12.23
2024-03-12T08:36:37.010Z,12.22
2024-03-12T08:39:08.179Z,12.21
2024-03-12T08:41:38.638Z,12.21
2024-03-12T08:44:10.697Z,12.22
2024-03-12T08:46:39.675Z,12.22
2024-03-12T08:49:12.128Z,12.20
2024-03-12T08:51:43.152Z,12.19
2024-03-12T08:54:15.185Z,12.17
2024-03-12T08:56:46.765Z,12.16
2024-03-12T08:59:17.225Z,12.16
2024-03-12T09:01:48.124Z,12.16
2024-03-12T09:04:20.088Z,12.17
2024-03-12T09:06:50.621Z,12.19
2024-03-12T09:09:23.300Z,12.20
2024-03-12T09:11:55.262Z,12.20
2024-03-12T09:14:26.012Z,12.20
2024-03-12T09:16:56.495Z,12.19
2024-03-12T09:19:26.951Z,12.19
2024-03-12T09:22:00.112Z,12.19
2024-03-12T09:24:32.105Z,12.19
2024-03-12T09:27:02.558Z,12.20
2024-03-12T09:29:33.064Z,12.23
2024-03-12T09:32:04.993Z,12.24
2024-03-12T09:34:37.986Z,12.25
2024-03-12T09:37:10.388Z,12.24
2024-03-12T09:39:42.877Z,12.26
2024-03-12T09:42:18.819Z,12.28
2024-03-12T09:44:53.202Z,12.30
2024-03-12T09:47:24.211Z,12.30
2024-03-12T09:49:55.637Z,12.31
2024-03-12T09:52:27.090Z,12.32
2024-03-12T09:54:58.364Z,12.35
2024-03-12T09:57:29.412Z,12.36
2024-03-12T10:00:00.142Z,12.37
2024-03-12T10:02:30.686Z,12.37
2024-03-12T10:05:02.196Z,12.39
2024-03-12T10:07:32.699Z,12.41
2024-03-12T10:10:03.523Z,12.42
2024-03-12T10:12:36.725Z,12.44
2024-03-12T10:15:12.271Z,12.45
2024-03-12T10:17:42.808Z,12.44
2024-03-12T10:20:17.356Z,12.41
2024-03-12T10:22:48.026Z,12.39
2024-03-12T10:25:19.038Z,12.37
2024-03-12T10:28:06.512Z,12.36
2024-03-12T10:30:38.913Z,12.35
2024-03-12T10:33:18.195Z,12.35
2024-03-12T10:35:51.817Z,12.35
2024-03-12T10:38:33.084Z,12.34
2024-03-12T10:41:17.818Z,12.35
2024-03-12T10:43:50.776Z,12.35
2024-03-12T10:46:22.495Z,12.35
2024-03-12T10:48:54.211Z,12.38
2024-03-12T10:51:25.348Z,12.40
2024-03-12T10:53:56.195Z,12.42
2024-03-12T10:56:26.768Z,12.46
2024-03-12T10:58:57.869Z,12.48
2024-03-12T11:01:29.842Z,12.49
2024-03-12T11:04:00.698Z,12.50
2024-03-12T11:06:32.411Z,12.50
2024-03-12T11:09:03.722Z,12.52
2024-03-12T11:11:35.524Z,12.54
2024-03-12T11:14:09.093Z,12.57
2024-03-12T11:16:41.644Z,12.63
2024-03-12T11:19:24.511Z,12.68
2024-03-12T11:21:56.740Z,12.71
2024-03-12T11:24:31.821Z,12.73
2024-03-12T11:27:02.989Z,12.76
2024-03-12T11:30:12.954Z,12.78
2024-03-12T11:32:45.895Z,12.81
2024-03-12T11:35:33.452Z,12.82
2024-03-12T11:38:11.792Z,12.83
2024-03-12T11:40:52.575Z,12.84
2024-03-12T11:43:40.745Z,12.84
2024-03-12T11:46:16.701Z,12.84
2024-03-12T11:48:47.658Z,12.87
2024-03-12T11:51:19.895Z,12.89
2024-03-12T11:53:50.599Z,12.90
2024-03-12T11:56:23.306Z,12.93
2024-03-12T11:59:00.185Z,12.95
2024-03-12T12:01:37.324Z,12.97
2024-03-12T12:04:11.877Z,12.99
2024-03-12T12:06:44.418Z,12.98
2024-03-12T12:09:15.450Z,12.96
2024-03-12T12:11:46.082Z,12.96
2024-03-12T12:14:17.575Z,12.97
2024-03-12T12:16:51.364Z,12.99
2024-03-12T12:19:31.893Z,13.01
2024-03-12T12:22:06.047Z,13.06
2024-03-12T12:24:38.988Z,13.08
2024-03-12T12:27:09.737Z,13.11
2024-03-12T12:29:41.163Z,13.14
2024-03-12T12:32:12.553Z,13.15
2024-03-12T12:34:43.332Z,13.14
2024-03-12T12:37:15.690Z,13.14
2024-03-12T12:39:53.844Z,13.13
2024-03-12T12:42:25.714Z,13.12
2024-03-12T12:44:57.052Z,13.10
2024-03-12T12:47:27.645Z,13.08
2024-03-12T12:50:00.409Z,13.08
2024-03-12T12:52:31.146Z,13.10
2024-03-12T12:55:02.298Z,13.13
2024-03-12T12:57:41.612Z,13.18
2024-03-12T13:00:24.546Z,13.23
2024-03-12T13:02:55.423Z,13.28
2024-03-12T13:05:26.104Z,13.33
2024-03-12T13:07:56.621Z,13.38
2024-03-12T13:10:28.226Z,13.41
2024-03-12T13:12:58.917Z,13.45
2024-03-12T13:15:35.137Z,13.47
2024-03-12T13:18:06.568Z,13.47
2024-03-12T13:20:37.100Z,13.49
2024-03-12T13:23:09.898Z,13.50
2024-03-12T13:25:40.685Z,13.51
2024-03-12T13:28:11.210Z,13.51
2024-03-12T13:30:41.789Z,13.52
2024-03-12T13:33:12.723Z,13.53
2024-03-12T13:35:44.867Z,13.53
2024-03-12T13:38:15.668Z,13.53
2024-03-12T13:40:46.230Z,13.52
2024-03-12T13:43:17.554Z,13.52
2024-03-12T13:45:49.943Z,13.52
2024-03-12T13:48:20.622Z,13.52
2024-03-12T13:50:51.290Z,13.53
2024-03-12T13:53:21.737Z,13.55
2024-03-12T13:55:54.289Z,13.56
2024-03-12T13:58:25.750Z,13.57
2024-03-12T14:00:59.065Z,13.59
2024-03-12T14:03:31.912Z,13.62
2024-03-12T14:06:03.870Z,13.66
2024-03-12T14:08:34.386Z,13.69
2024-03-12T14:11:05.163Z,13.71
2024-03-12T14:13:36.158Z,13.73
2024-03-12T14:16:10.192Z,13.74
2024-03-12T14:18:40.721Z,13.75
2024-03-12T14:21:14.147Z,13.75
2024-03-12T14:23:44.623Z,13.76
2024-03-12T14:26:19.292Z,13.76
2024-03-12T14:28:50.006Z,13.77
2024-03-12T14:31:20.604Z,13.76
2024-03-12T14:33:51.103Z,13.76
2024-03-12T14:36:21.571Z,13.76
2024-03-12T14:38:54.819Z,13.75
2024-03-12T14:41:27.457Z,13.74
2024-03-12T14:43:58.340Z,13.73
2024-03-12T14:46:30.941Z,13.72
2024-03-12T14:49:01.579Z,13.72
2024-03-12T14:51:33.750Z,13.72
2024-03-12T14:54:04.482Z,13.74
2024-03-12T14:56:34.943Z,13.75
2024-03-12T14:59:06.945Z,13.76
2024-03-12T15:01:36.060Z,13.78
2024-03-12T15:04:08.071Z,13.78
2024-03-12T15:06:40.880Z,13.79
2024-03-12T15:09:15.141Z,13.80
2024-03-12T15:11:47.812Z,13.81
2024-03-12T15:14:18.546Z,13.81
2024-03-12T15:16:51.930Z,13.81
2024-03-12T15:19:22.408Z,13.82
2024-03-12T15:21:53.303Z,13.83
2024-03-12T15:24:23.853Z,13.84
2024-03-12T15:26:56.600Z,13.85
2024-03-12T15:29:29.416Z,13.85
2024-03-12T15:31:59.974Z,13.85
2024-03-12T15:34:30.454Z,13.86
2024-03-12T15:37:01.009Z,13.87
2024-03-12T15:39:31.931Z,13.92
2024-03-12T15:42:02.416Z,13.95
2024-03-12T15:44:33.428Z,13.97
2024-03-12T15:47:03.900Z,13.99
2024-03-12T15:49:35.083Z,13.99
2024-03-12T15:52:06.008Z,14.00
2024-03-12T15:54:38.637Z,14.01
2024-03-12T15:57:11.154Z,14.02
2024-03-12T15:59:40.134Z,14.04
2024-03-12T16:02:10.886Z,14.06
2024-03-12T16:04:41.418Z,14.08
2024-03-12T16:07:11.968Z,14.08
2024-03-12T16:09:42.752Z,14.07
2024-03-12T16:12:14.594Z,14.07
2024-03-12T16:14:44.200Z,14.06
2024-03-12T16:17:14.676Z,14.05
2024-03-12T16:19:45.143Z,14.03
2024-03-12T16:22:15.802Z,14.01
2024-03-12T16:24:46.456Z,14.00
2024-03-12T16:27:16.972Z,13.99
2024-03-12T16:29:47.884Z,13.98
2024-03-12T16:32:18.414Z,13.97
2024-03-12T16:34:48.894Z,13.95
2024-03-12T16:37:19.589Z,13.94
2024-03-12T16:39:50.684Z,13.92
2024-03-12T16:42:22.148Z,13.90
2024-03-12T16:44:53.611Z,13.88
2024-03-12T16:47:24.198Z,13.86
2024-03-12T16:49:54.682Z,13.84
2024-03-12T16:52:25.319Z,13.83
2024-03-12T16:54:56.868Z,13.81
2024-03-12T16:57:28.802Z,13.80
2024-03-12T17:00:01.915Z,13.79
2024-03-12T17:02:41.609Z,13.81
2024-03-12T17:05:15.957Z,13.83
2024-03-12T17:07:50.453Z,13.85
2024-03-12T17:10:23.766Z,13.86
2024-03-12T17:12:55.775Z,13.88
2024-03-12T17:15:27.191Z,13.90
2024-03-12T17:17:59.020Z,13.90
2024-03-12T17:20:33.066Z,13.90
2024-03-12T17:23:05.678Z,13.88
2024-03-12T17:25:38.935Z,13.86
2024-03-12T17:28:11.482Z,13.85
2024-03-12T17:30:42.953Z,13.83
2024-03-12T17:33:14.737Z,13.81
2024-03-12T17:35:46.139Z,13.80
2024-03-12T17:38:18.350Z,13.78
2024-03-12T17:40:54.312Z,13.76
2024-03-12T17:43:27.695Z,13.75
2024-03-12T17:45:59.416Z,13.74
2024-03-12T17:48:36.167Z,13.73
2024-03-12T17:51:08.062Z,13.72
2024-03-12T17:53:39.813Z,13.71
2024-03-12T17:56:13.988Z,13.69
2024-03-12T17:58:48.414Z,13.67
2024-03-12T18:01:22.101Z,13.69
2024-03-12T18:03:53.592Z,13.70
2024-03-12T18:06:29.237Z,13.71
2024-03-12T18:09:02.656Z,13.72
2024-03-12T18:11:34.059Z,13.72
2024-03-12T18:14:07.620Z,13.72
2024-03-12T18:16:38.974Z,13.72
2024-03-12T18:19:10.048Z,13.71
2024-03-12T18:21:40.779Z,13.70
2024-03-12T18:24:11.560Z,13.68
2024-03-12T18:26:43.950Z,13.67
2024-03-12T18:29:14.636Z,13.65
2024-03-12T18:31:45.358Z,13.64
2024-03-12T18:34:18.549Z,13.63
2024-03-12T18:36:54.759Z,13.61
2024-03-12T18:39:25.671Z,13.58
2024-03-12T18:41:56.580Z,13.57
2024-03-12T18:44:28.068Z,13.55
2024-03-12T18:46:58.636Z,13.53
2024-03-12T18:49:29.681Z,13.52
2024-03-12T18:52:01.660Z,13.50
2024-03-12T18:54:33.384Z,13.49
2024-03-12T18:57:04.837Z,13.49
2024-03-12T18:59:36.722Z,13.49
2024-03-12T19:02:07.825Z,13.49
2024-03-12T19:04:39.262Z,13.47
2024-03-12T19:07:11.956Z,13.47
2024-03-12T19:09:43.516Z,13.47
2024-03-12T19:12:16.675Z,13.46
2024-03-12T19:14:49.317Z,13.45
2024-03-12T19:17:21.216Z,13.44
2024-03-12T19:19:50.509Z,13.42
2024-03-12T19:22:22.141Z,13.40
2024-03-12T19:24:52.802Z,13.39
2024-03-12T19:27:30.861Z,13.38
2024-03-12T19:30:06.687Z,13.39
2024-03-12T19:32:38.664Z,13.38
2024-03-12T19:35:09.036Z,13.40
2024-03-12T19:37:40.731Z,13.37
2024-03-12T19:40:13.725Z,13.36
2024-03-12T19:42:46.779Z,13.36
2024-03-12T19:45:20.083Z,13.35
2024-03-12T19:47:52.591Z,13.37
2024-03-12T19:50:27.006Z,13.39
2024-03-12T19:52:58.169Z,13.41
2024-03-12T19:55:30.578Z,13.42
2024-03-12T19:58:02.418Z,13.43
2024-03-12T20:00:35.012Z,13.44
2024-03-12T20:03:07.439Z,13.45
2024-03-12T20:05:37.985Z,13.45
2024-03-12T20:08:10.453Z,13.46
2024-03-12T20:10:41.971Z,13.46
2024-03-12T20:13:12.630Z,13.46
2024-03-12T20:15:46.524Z,13.45
2024-03-12T20:18:17.460Z,13.44
2024-03-12T20:20:48.026Z,13.43
2024-03-12T20:23:18.569Z,13.42
2024-03-12T20:25:49.216Z,13.41
2024-03-12T20:28:19.999Z,13.40
2024-03-12T20:30:52.459Z,13.39
2024-03-12T20:33:25.635Z,13.37
2024-03-12T20:35:58.961Z,13.36
2024-03-12T20:38:30.116Z,13.36
2024-03-12T20:41:00.748Z,13.38
2024-03-12T20:43:31.305Z,13.38
2024-03-12T20:46:02.170Z,13.38
2024-03-12T20:48:33.720Z,13.37
2024-03-12T20:51:05.689Z,13.37
2024-03-12T20:53:35.088Z,13.37
2024-03-12T20:56:06.385Z,13.36
2024-03-12T20:58:36.901Z,13.35
2024-03-12T21:01:09.997Z,13.33
2024-03-12T21:03:40.928Z,13.31
2024-03-12T21:06:13.512Z,13.30
2024-03-12T21:08:46.954Z,13.28
2024-03-12T21:11:17.474Z,13.27
2024-03-12T21:13:48.003Z,13.24
2024-03-12T21:16:19.029Z,13.22
2024-03-12T21:18:49.626Z,13.21
2024-03-12T21:21:20.167Z,13.21
2024-03-12T21:23:50.608Z,13.22
2024-03-12T21:26:24.690Z,13.21
2024-03-12T21:28:55.199Z,13.16
2024-03-12T21:31:25.746Z,13.09
2024-03-12T21:33:56.353Z,13.04
2024-03-12T21:36:26.847Z,13.01
2024-03-12T21:38:58.846Z,13.00
2024-03-12T21:41:27.902Z,12.99
2024-03-12T21:43:58.458Z,12.97
2024-03-12T21:46:28.980Z,12.97
2024-03-12T21:48:59.537Z,12.98
2024-03-12T21:51:31.012Z,12.99
2024-03-12T21:54:01.477Z,12.99
2024-03-12T21:56:32.260Z,12.99
2024-03-12T21:59:02.761Z,13.00
2024-03-12T22:01:33.339Z,13.00
2024-03-12T22:04:04.345Z,13.00
2024-03-12T22:06:34.866Z,13.00
2024-03-12T22:09:05.419Z,12.99
2024-03-12T22:11:35.956Z,12.98
2024-03-12T22:14:06.515Z,12.96
2024-03-12T22:16:39.335Z,12.93
2024-03-12T22:19:10.014Z,12.90
2024-03-12T22:21:45.533Z,12.87
2024-03-12T22:24:23.227Z,12.84
2024-03-12T22:26:54.688Z,12.81
2024-03-12T22:29:25.372Z,12.81
2024-03-12T22:31:55.989Z,12.80
2024-03-12T22:34:26.514Z,12.78
2024-03-12T22:36:57.316Z,12.78
2024-03-12T22:39:28.893Z,12.79
2024-03-12T22:42:00.344Z,12.80
2024-03-12T22:44:31.849Z,12.81
2024-03-12T22:47:08.125Z,12.81
2024-03-12T22:49:44.248Z,12.82
2024-03-12T22:52:15.508Z,12.83
2024-03-12T22:54:46.514Z,12.85
2024-03-12T22:57:17.884Z,12.86
2024-03-12T22:59:52.575Z,12.85
2024-03-12T23:02:24.697Z,12.85
2024-03-12T23:04:55.715Z,12.86
2024-03-12T23:07:28.441Z,12.87
2024-03-12T23:10:00.058Z,12.86
2024-03-12T23:12:30.590Z,12.84
2024-03-12T23:15:02.115Z,12.84
2024-03-12T23:17:32.865Z,12.84
2024-03-12T23:20:03.395Z,12.82
2024-03-12T23:22:34.109Z,12.82
2024-03-12T23:25:07.002Z,12.84
2024-03-12T23:27:38.542Z,12.84
2024-03-12T23:30:13.923Z,12.83
2024-03-12T23:32:44.982Z,12.83
2024-03-12T23:35:15.635Z,12.83
2024-03-12T23:37:46.180Z,12.84
2024-03-12T23:40:17.095Z,12.83
2024-03-12T23:42:48.108Z,12.83
2024-03-12T23:45:19.781Z,12.83
2024-03-12T23:47:51.205Z,12.84
2024-03-12T23:50:22.068Z,12.86
2024-03-12T23:52:52.556Z,12.86
2024-03-12T23:55:23.191Z,12.85
2024-03-12T23:57:55.579Z,12.83
